| time (UTC) | temp C | wind direction | speed KPH | gust KPH | rain 1hr cm | rain 24hr cm | rain mn cm | humidity % | barometer mb |
| 20260509043038 | 11 | 202 | 4.8 | 8.0 | 0.00 | 0.58 | 0.00 | 94 | 1008.0 |
| 20260509041539 | 11 | 203 | 3.2 | 6.4 | 0.00 | 0.58 | 0.00 | 95 | 1008.0 |
| 20260509040042 | 11 | 199 | 0.0 | 3.2 | 0.00 | 0.58 | 0.00 | 94 | 1008.1 |
| 20260509034540 | 11 | 0 | 0.0 | 0.0 | 0.00 | 0.58 | 0.58 | 94 | 1008.1 |
| 20260509033039 | 11 | 0 | 0.0 | 1.6 | 0.00 | 0.58 | 0.58 | 94 | 1008.3 |
| 20260509031553 | 11 | 175 | 3.2 | 4.8 | 0.00 | 0.58 | 0.58 | 93 | 1008.3 |
| 20260509030039 | 11 | 0 | 0.0 | 3.2 | 0.00 | 0.58 | 0.58 | 94 | 1008.5 |
| 20260509024542 | 11 | 168 | 1.6 | 3.2 | 0.00 | 0.58 | 0.58 | 93 | 1008.4 |
| 20260509023039 | 11 | 198 | 1.6 | 3.2 | 0.00 | 0.58 | 0.58 | 92 | 1008.4 |
| 20260509021538 | 12 | 191 | 1.6 | 4.8 | 0.00 | 0.58 | 0.58 | 91 | 1008.3 |
| 20260509020043 | 12 | 194 | 1.6 | 4.8 | 0.00 | 0.58 | 0.58 | 91 | 1008.4 |
| 20260509014543 | 12 | 212 | 4.8 | 6.4 | 0.00 | 0.58 | 0.58 | 90 | 1008.3 |
| 20260509013038 | 12 | 210 | 3.2 | 9.7 | 0.00 | 0.58 | 0.58 | 89 | 1008.4 |
| 20260509011546 | 12 | 219 | 4.8 | 11.3 | 0.00 | 0.58 | 0.58 | 89 | 1008.2 |
| 20260509010046 | 12 | 198 | 6.4 | 11.3 | 0.00 | 0.58 | 0.58 | 88 | 1008.3 |
| 20260509004542 | 12 | 212 | 6.4 | 12.9 | 0.00 | 0.58 | 0.58 | 87 | 1008.2 |
| 20260509003045 | 13 | 195 | 8.0 | 12.9 | 0.00 | 0.58 | 0.58 | 87 | 1008.3 |
| 20260509001539 | 13 | 207 | 6.4 | 12.9 | 0.00 | 0.58 | 0.58 | 87 | 1008.3 |
| 20260509000043 | 13 | 212 | 6.4 | 16.1 | 0.00 | 0.58 | 0.58 | 86 | 1008.4 |
| 20260508234549 | 13 | 224 | 6.4 | 17.7 | 0.00 | 0.58 | 0.58 | 87 | 1008.4 |
| 20260508233043 | 13 | 229 | 8.0 | 12.9 | 0.00 | 0.58 | 0.58 | 87 | 1008.5 |
| 20260508231540 | 13 | 201 | 8.0 | 12.9 | 0.00 | 0.58 | 0.58 | 86 | 1008.5 |
| 20260508230048 | 13 | 222 | 6.4 | 11.3 | 0.00 | 0.58 | 0.58 | 85 | 1008.6 |
| 20260508224546 | 13 | 218 | 4.8 | 9.7 | 0.00 | 0.58 | 0.58 | 86 | 1008.6 |
| 20260508223037 | 13 | 227 | 4.8 | 12.9 | 0.03 | 0.58 | 0.58 | 87 | 1008.6 |
| 20260508221541 | 13 | 212 | 6.4 | 14.5 | 0.03 | 0.58 | 0.58 | 88 | 1008.6 |
| 20260508220109 | 13 | 213 | 6.4 | 12.9 | 0.03 | 0.58 | 0.58 | 87 | 1008.6 |
| 20260508214538 | 13 | 222 | 6.4 | 12.9 | 0.03 | 0.58 | 0.58 | 87 | 1008.6 |
| 20260508213039 | 13 | 246 | 9.7 | 16.1 | 0.03 | 0.56 | 0.56 | 85 | 1008.7 |
| 20260508211547 | 13 | 218 | 9.7 | 17.7 | 0.05 | 0.56 | 0.56 | 86 | 1008.9 |
| 20260508210042 | 13 | 189 | 8.0 | 16.1 | 0.10 | 0.56 | 0.56 | 89 | 1009.0 |
| 20260508204543 | 13 | 164 | 4.8 | 11.3 | 0.15 | 0.56 | 0.56 | 90 | 1009.1 |
| 20260508203038 | 13 | 198 | 4.8 | 11.3 | 0.15 | 0.53 | 0.53 | 88 | 1009.3 |
| 20260508201537 | 13 | 271 | 6.4 | 12.9 | 0.23 | 0.51 | 0.51 | 87 | 1009.5 |
| 20260508200038 | 13 | 256 | 6.4 | 9.7 | 0.33 | 0.46 | 0.46 | 89 | 1009.8 |
| 20260508194541 | 13 | 245 | 0.0 | 11.3 | 0.33 | 0.41 | 0.41 | 88 | 1009.9 |
| 20260508193045 | 12 | 266 | 4.8 | 17.7 | 0.28 | 0.36 | 0.36 | 87 | 1010.3 |
| 20260508191538 | 13 | 259 | 6.4 | 12.9 | 0.20 | 0.25 | 0.25 | 84 | 1010.3 |
| 20260508190042 | 14 | 262 | 6.4 | 12.9 | 0.08 | 0.13 | 0.13 | 78 | 1010.3 |
| 20260508184545 | 15 | 269 | 4.8 | 11.3 | 0.03 | 0.08 | 0.08 | 73 | 1009.9 |
| 20260508183046 | 16 | 275 | 11.3 | 24.1 | 0.03 | 0.08 | 0.08 | 68 | 1010.2 |
| 20260508181557 | 17 | 267 | 11.3 | 24.1 | 0.00 | 0.05 | 0.05 | 61 | 1010.0 |
| 20260508180047 | 17 | 235 | 6.4 | 19.3 | 0.00 | 0.05 | 0.05 | 60 | 1010.1 |
| 20260508174548 | 16 | 273 | 4.8 | 12.9 | 0.00 | 0.05 | 0.05 | 61 | 1010.4 |
| 20260508173037 | 16 | 224 | 11.3 | 19.3 | 0.00 | 0.05 | 0.05 | 61 | 1010.6 |
| 20260508171537 | 16 | 228 | 8.0 | 16.1 | 0.00 | 0.05 | 0.05 | 60 | 1010.9 |
| 20260508170041 | 16 | 250 | 11.3 | 20.9 | 0.00 | 0.05 | 0.05 | 58 | 1010.9 |
| 20260508164539 | 16 | 195 | 9.7 | 12.9 | 0.00 | 0.05 | 0.05 | 61 | 1011.3 |
| 20260508163040 | 15 | 222 | 6.4 | 12.9 | 0.00 | 0.05 | 0.05 | 61 | 1011.5 |
| 20260508161538 | 15 | 251 | 8.0 | 19.3 | 0.00 | 0.05 | 0.05 | 64 | 1011.7 |
| 20260508160038 | 15 | 220 | 11.3 | 17.7 | 0.00 | 0.05 | 0.05 | 63 | 1011.7 |
| 20260508154540 | 15 | 250 | 11.3 | 17.7 | 0.00 | 0.05 | 0.05 | 62 | 1011.8 |
| 20260508153041 | 15 | 229 | 8.0 | 20.9 | 0.00 | 0.05 | 0.05 | 60 | 1011.8 |
| 20260508151539 | 14 | 233 | 8.0 | 19.3 | 0.00 | 0.05 | 0.05 | 62 | 1012.0 |
| 20260508150038 | 13 | 217 | 9.7 | 14.5 | 0.00 | 0.05 | 0.05 | 70 | 1012.0 |
| 20260508144542 | 12 | 198 | 8.0 | 12.9 | 0.00 | 0.05 | 0.05 | 69 | 1012.3 |
| 20260508143040 | 12 | 244 | 4.8 | 9.7 | 0.03 | 0.05 | 0.05 | 71 | 1012.5 |
| 20260508141548 | 11 | 196 | 4.8 | 6.4 | 0.03 | 0.05 | 0.05 | 75 | 1012.4 |
| 20260508140040 | 11 | 219 | 3.2 | 8.0 | 0.03 | 0.05 | 0.05 | 76 | 1012.7 |
| 20260508134550 | 11 | 252 | 3.2 | 8.0 | 0.03 | 0.05 | 0.05 | 75 | 1012.8 |
| 20260508133043 | 11 | 243 | 4.8 | 16.1 | 0.00 | 0.03 | 0.03 | 74 | 1013.0 |
| 20260508131541 | 11 | 211 | 4.8 | 9.7 | 0.00 | 0.03 | 0.03 | 77 | 1012.3 |
| 20260508130040 | 10 | 193 | 4.8 | 8.0 | 0.00 | 0.03 | 0.03 | 80 | 1012.2 |
| 20260508124537 | 10 | 169 | 4.8 | 9.7 | 0.00 | 0.03 | 0.03 | 80 | 1012.5 |
| 20260508123038 | 10 | 228 | 3.2 | 6.4 | 0.00 | 0.03 | 0.03 | 81 | 1012.6 |
| 20260508121541 | 10 | 245 | 3.2 | 6.4 | 0.00 | 0.03 | 0.03 | 81 | 1012.7 |
| 20260508120042 | 9 | 260 | 4.8 | 11.3 | 0.00 | 0.03 | 0.03 | 81 | 1012.5 |
| 20260508114547 | 9 | 215 | 4.8 | 12.9 | 0.00 | 0.03 | 0.03 | 81 | 1012.4 |
| 20260508113045 | 10 | 221 | 6.4 | 17.7 | 0.03 | 0.03 | 0.03 | 80 | 1012.1 |
| 20260508111542 | 10 | 242 | 9.7 | 17.7 | 0.03 | 0.03 | 0.03 | 78 | 1012.1 |
| 20260508110037 | 10 | 236 | 11.3 | 19.3 | 0.03 | 0.03 | 0.03 | 78 | 1012.1 |
| 20260508104542 | 10 | 212 | 14.5 | 25.7 | 0.03 | 0.03 | 0.03 | 73 | 1011.8 |
| 20260508103041 | 10 | 221 | 11.3 | 19.3 | 0.00 | 0.00 | 0.00 | 69 | 1012.0 |
| 20260508101538 | 10 | 256 | 8.0 | 16.1 | 0.00 | 0.00 | 0.00 | 71 | 1012.0 |
| 20260508100039 | 10 | 242 | 6.4 | 20.9 | 0.00 | 0.00 | 0.00 | 72 | 1011.9 |
| 20260508094553 | 11 | 226 | 11.3 | 17.7 | 0.00 | 0.00 | 0.00 | 70 | 1011.9 |
| 20260508093036 | 11 | 243 | 9.7 | 27.4 | 0.00 | 0.00 | 0.00 | 69 | 1012.1 |
| 20260508091542 | 11 | 137 | 11.3 | 22.5 | 0.00 | 0.00 | 0.00 | 67 | 1012.3 |
| 20260508090047 | 11 | 253 | 4.8 | 19.3 | 0.00 | 0.00 | 0.00 | 67 | 1012.5 |
| 20260508084537 | 11 | 262 | 6.4 | 17.7 | 0.00 | 0.00 | 0.00 | 70 | 1012.1 |
| 20260508083038 | 10 | 244 | 6.4 | 16.1 | 0.00 | 0.00 | 0.00 | 73 | 1011.9 |
| 20260508081557 | 10 | 241 | 9.7 | 19.3 | 0.00 | 0.00 | 0.00 | 73 | 1011.9 |
| 20260508080041 | 10 | 220 | 8.0 | 20.9 | 0.00 | 0.00 | 0.00 | 71 | 1011.9 |
| 20260508074540 | 10 | 231 | 11.3 | 24.1 | 0.00 | 0.00 | 0.00 | 70 | 1012.0 |
| 20260508073042 | 10 | 226 | 9.7 | 20.9 | 0.00 | 0.00 | 0.00 | 70 | 1012.3 |
| 20260508071544 | 10 | 212 | 11.3 | 20.9 | 0.00 | 0.00 | 0.00 | 70 | 1012.2 |
| 20260508070037 | 10 | 206 | 8.0 | 19.3 | 0.00 | 0.00 | 0.00 | 71 | 1012.3 |
| 20260508064542 | 10 | 200 | 9.7 | 16.1 | 0.00 | 0.00 | 0.00 | 72 | 1012.4 |
| 20260508063052 | 9 | 233 | 6.4 | 16.1 | 0.00 | 0.00 | 0.00 | 75 | 1012.4 |
| 20260508061541 | 8 | 219 | 4.8 | 9.7 | 0.00 | 0.00 | 0.00 | 79 | 1012.3 |
| 20260508060039 | 8 | 210 | 3.2 | 6.4 | 0.00 | 0.00 | 0.00 | 79 | 1012.5 |
| 20260508054539 | 8 | 207 | 1.6 | 4.8 | 0.00 | 0.00 | 0.00 | 80 | 1012.6 |
| 20260508053039 | 8 | 235 | 3.2 | 6.4 | 0.00 | 0.00 | 0.00 | 79 | 1012.8 |
| 20260508051537 | 8 | 225 | 3.2 | 6.4 | 0.00 | 0.00 | 0.00 | 79 | 1012.9 |
| 20260508050041 | 8 | 229 | 3.2 | 8.0 | 0.00 | 0.00 | 0.00 | 79 | 1012.7 |
| 20260508044538 | 8 | 212 | 3.2 | 8.0 | 0.00 | 0.00 | 0.00 | 78 | 1012.8 |